createdAt,value
2019-03-20T00:00:37.082Z,8.07
2019-03-20T00:03:10.180Z,8.07
2019-03-20T00:05:43.317Z,8.33
2019-03-20T00:08:16.291Z,8.90
2019-03-20T00:10:49.295Z,9.23
2019-03-20T00:13:22.402Z,9.47
2019-03-20T00:15:55.474Z,8.67
2019-03-20T00:18:28.680Z,8.77
2019-03-20T00:21:02.785Z,8.73
2019-03-20T00:23:35.661Z,9.13
2019-03-20T00:26:08.532Z,8.87
2019-03-20T00:28:41.684Z,9.17
2019-03-20T00:31:14.769Z,9.53
2019-03-20T00:33:47.810Z,9.57
2019-03-20T00:36:20.905Z,9.67
2019-03-20T00:38:54.538Z,9.27
2019-03-20T00:41:27.714Z,10.10
2019-03-20T00:44:00.555Z,10.13
2019-03-20T00:46:33.409Z,10.77
2019-03-20T00:49:06.222Z,10.70
2019-03-20T00:51:39.151Z,12.60
2019-03-20T00:54:12.103Z,11.40
2019-03-20T00:56:45.038Z,13.37
2019-03-20T00:59:17.837Z,15.20
2019-03-20T01:01:50.907Z,14.80
2019-03-20T01:04:24.054Z,14.13
2019-03-20T01:06:57.023Z,13.63
2019-03-20T01:09:33.531Z,13.10
2019-03-20T01:12:06.805Z,11.67
2019-03-20T01:14:39.767Z,11.80
2019-03-20T01:17:12.620Z,11.77
2019-03-20T01:19:45.701Z,11.37
2019-03-20T01:22:18.675Z,11.47
2019-03-20T01:24:51.500Z,12.67
2019-03-20T01:27:24.432Z,11.83
2019-03-20T01:29:57.192Z,11.30
2019-03-20T01:32:30.416Z,10.20
2019-03-20T01:35:03.741Z,11.30
2019-03-20T01:37:36.522Z,11.47
2019-03-20T01:40:09.292Z,12.17
2019-03-20T01:42:42.230Z,12.33
2019-03-20T01:45:15.213Z,12.53
2019-03-20T01:47:48.447Z,11.43
2019-03-20T01:50:21.557Z,12.63
2019-03-20T01:52:54.302Z,12.57
2019-03-20T01:55:27.291Z,12.17
2019-03-20T01:58:00.151Z,11.63
2019-03-20T02:00:33.364Z,12.47
2019-03-20T02:03:06.641Z,12.03
2019-03-20T02:05:39.867Z,11.67
2019-03-20T02:08:12.770Z,12.93
2019-03-20T02:10:45.812Z,13.90
2019-03-20T02:13:18.963Z,13.23
2019-03-20T02:15:51.825Z,13.70
2019-03-20T02:18:24.815Z,12.93
2019-03-20T02:20:59.286Z,12.17
2019-03-20T02:23:32.516Z,11.50
2019-03-20T02:26:05.703Z,12.00
2019-03-20T02:28:38.651Z,12.63
2019-03-20T02:31:11.611Z,12.70
2019-03-20T02:33:44.467Z,12.67
2019-03-20T02:36:17.540Z,12.17
2019-03-20T02:38:50.473Z,11.57
2019-03-20T02:41:23.518Z,13.10
2019-03-20T02:43:56.275Z,11.87
2019-03-20T02:46:30.616Z,12.27
2019-03-20T02:49:03.534Z,12.73
2019-03-20T02:51:36.740Z,11.63
2019-03-20T02:54:09.867Z,16.33
2019-03-20T02:56:42.961Z,18.67
2019-03-20T02:59:15.922Z,15.83
2019-03-20T03:01:49.223Z,13.67
2019-03-20T03:04:22.167Z,13.67
2019-03-20T03:06:54.947Z,13.27
2019-03-20T03:09:27.814Z,13.03
2019-03-20T03:12:00.593Z,12.63
2019-03-20T03:14:33.422Z,12.80
2019-03-20T03:17:06.312Z,12.00
2019-03-20T03:19:39.441Z,15.73
2019-03-20T03:22:12.327Z,14.03
2019-03-20T03:24:45.079Z,12.87
2019-03-20T03:27:17.994Z,14.53
2019-03-20T03:29:50.853Z,14.17
2019-03-20T03:32:23.746Z,12.57
2019-03-20T03:34:56.796Z,13.93
2019-03-20T03:37:29.729Z,13.07
2019-03-20T03:40:03.223Z,12.87
2019-03-20T03:42:36.104Z,13.30
2019-03-20T03:45:11.039Z,12.80
2019-03-20T03:47:44.323Z,14.30
2019-03-20T03:50:17.494Z,13.17
2019-03-20T03:52:50.595Z,14.37
2019-03-20T03:55:23.776Z,13.87
2019-03-20T03:57:57.136Z,13.40
2019-03-20T04:00:30.179Z,13.40
2019-03-20T04:03:03.420Z,13.70
2019-03-20T04:05:36.363Z,11.87
2019-03-20T04:08:09.134Z,14.67
2019-03-20T04:10:41.939Z,14.40
2019-03-20T04:13:15.053Z,14.20
2019-03-20T04:15:48.088Z,15.33
2019-03-20T04:18:20.996Z,14.37
2019-03-20T04:20:54.022Z,13.87
2019-03-20T04:23:27.315Z,14.67
2019-03-20T04:26:00.466Z,13.47
2019-03-20T04:28:33.376Z,14.10
2019-03-20T04:31:06.217Z,14.23
2019-03-20T04:33:39.254Z,14.70
2019-03-20T04:36:12.104Z,14.17
2019-03-20T04:38:45.063Z,13.40
2019-03-20T04:41:18.176Z,14.80
2019-03-20T04:43:51.161Z,13.50
2019-03-20T04:46:24.238Z,13.27
2019-03-20T04:48:57.462Z,13.33
2019-03-20T04:51:30.660Z,12.70
2019-03-20T04:54:03.840Z,12.80
2019-03-20T04:56:36.799Z,14.07
2019-03-20T04:59:09.900Z,14.23
2019-03-20T05:01:42.986Z,13.33
2019-03-20T05:04:15.985Z,13.77
2019-03-20T05:06:58.178Z,14.87
2019-03-20T05:09:24.814Z,14.23
2019-03-20T05:11:57.697Z,13.90
2019-03-20T05:14:30.781Z,14.43
2019-03-20T05:17:03.639Z,13.77
2019-03-20T05:19:36.698Z,14.27
2019-03-20T05:22:09.499Z,13.50
2019-03-20T05:24:42.269Z,13.17
2019-03-20T05:27:15.111Z,13.97
2019-03-20T05:29:47.936Z,13.37
2019-03-20T05:32:21.281Z,13.67
2019-03-20T05:34:54.196Z,12.33
2019-03-20T05:37:27.227Z,12.40
2019-03-20T05:40:00.377Z,13.17
2019-03-20T05:42:33.390Z,13.23
2019-03-20T05:45:07.880Z,13.30
2019-03-20T05:47:40.774Z,13.10
2019-03-20T05:50:13.616Z,11.77
2019-03-20T05:52:46.557Z,11.63
2019-03-20T05:55:19.488Z,12.43
2019-03-20T05:57:52.550Z,11.97
2019-03-20T06:00:27.699Z,12.37
2019-03-20T06:03:00.755Z,12.50
2019-03-20T06:05:33.669Z,12.27
2019-03-20T06:08:06.515Z,11.93
2019-03-20T06:10:39.411Z,12.30
2019-03-20T06:13:12.306Z,11.83
2019-03-20T06:15:45.442Z,12.53
2019-03-20T06:18:18.600Z,12.20
2019-03-20T06:20:51.675Z,11.03
2019-03-20T06:23:24.422Z,11.80
2019-03-20T06:25:57.546Z,11.63
2019-03-20T06:28:30.607Z,12.03
2019-03-20T06:31:03.427Z,11.63
2019-03-20T06:33:36.911Z,12.63
2019-03-20T06:36:09.927Z,11.33
2019-03-20T06:38:45.856Z,11.90
2019-03-20T06:41:18.666Z,11.10
2019-03-20T06:43:51.590Z,11.53
2019-03-20T06:46:24.590Z,10.30
2019-03-20T06:48:57.706Z,10.27
2019-03-20T06:51:30.874Z,10.33
2019-03-20T06:54:04.146Z,9.20
2019-03-20T06:56:37.037Z,9.73
2019-03-20T07:00:07.352Z,8.90
2019-03-20T07:02:46.611Z,9.27
2019-03-20T07:06:06.518Z,9.13
2019-03-20T07:08:43.905Z,10.20
2019-03-20T07:11:17.349Z,9.57
2019-03-20T07:13:50.773Z,9.03
2019-03-20T07:16:24.256Z,9.80
2019-03-20T07:18:57.420Z,8.60
2019-03-20T07:21:30.430Z,7.70
2019-03-20T07:24:03.452Z,8.43
2019-03-20T07:26:36.275Z,7.53
2019-03-20T07:29:09.775Z,7.77
2019-03-20T07:31:42.764Z,7.23
2019-03-20T07:34:16.125Z,6.33
2019-03-20T07:36:49.155Z,6.87
2019-03-20T07:39:22.110Z,7.47
2019-03-20T07:41:55.332Z,6.37
2019-03-20T07:44:28.481Z,6.17
2019-03-20T07:47:01.260Z,6.30
2019-03-20T07:49:34.183Z,6.57
2019-03-20T07:52:07.053Z,6.80
2019-03-20T07:54:40.091Z,7.23
2019-03-20T07:57:12.985Z,6.00
2019-03-20T07:59:46.010Z,7.63
2019-03-20T08:02:19.034Z,6.30
2019-03-20T08:04:52.157Z,7.13
2019-03-20T08:07:25.167Z,6.10
2019-03-20T08:09:58.018Z,6.00
2019-03-20T08:12:31.097Z,5.77
2019-03-20T08:15:05.648Z,6.10
2019-03-20T08:17:38.694Z,7.30
2019-03-20T08:20:12.787Z,5.80
2019-03-20T08:22:45.542Z,10.33
2019-03-20T08:25:18.523Z,7.07
2019-03-20T08:27:51.776Z,6.63
2019-03-20T08:30:24.845Z,9.53
2019-03-20T08:32:57.832Z,10.00
2019-03-20T08:35:30.977Z,6.50
2019-03-20T08:38:04.074Z,10.10
2019-03-20T08:40:37.241Z,7.37
2019-03-20T08:43:10.391Z,7.60
2019-03-20T08:45:43.467Z,6.13
2019-03-20T08:48:16.559Z,7.23
2019-03-20T08:50:49.747Z,6.17
2019-03-20T08:53:22.749Z,6.50
2019-03-20T08:55:55.919Z,6.80
2019-03-20T08:58:29.019Z,5.03
2019-03-20T09:01:02.127Z,5.30
2019-03-20T09:03:35.408Z,4.80
2019-03-20T09:06:08.384Z,5.60
2019-03-20T09:08:41.442Z,5.30
2019-03-20T09:11:14.361Z,5.00
2019-03-20T09:13:47.439Z,4.80
2019-03-20T09:16:20.512Z,4.67
2019-03-20T09:18:53.508Z,4.92
2019-03-20T09:21:27.632Z,4.33
2019-03-20T09:24:00.593Z,4.67
2019-03-20T09:26:33.629Z,5.05
2019-03-20T09:29:17.990Z,5.22
2019-03-20T09:31:41.794Z,5.00
2019-03-20T09:34:14.843Z,5.00
2019-03-20T09:36:47.887Z,5.45
2019-03-20T09:39:20.817Z,4.75
2019-03-20T09:41:53.829Z,5.20
2019-03-20T09:44:27.022Z,5.12
2019-03-20T09:47:00.212Z,4.35
2019-03-20T09:49:33.375Z,5.50
2019-03-20T09:52:06.500Z,6.35
2019-03-20T09:54:39.570Z,4.60
2019-03-20T09:57:12.470Z,5.15
2019-03-20T09:59:46.001Z,5.15
2019-03-20T10:02:19.168Z,4.53
2019-03-20T10:04:52.697Z,4.58
2019-03-20T10:07:25.817Z,5.12
2019-03-20T10:09:58.628Z,4.78
2019-03-20T10:12:31.676Z,4.78
2019-03-20T10:15:07.355Z,5.30
2019-03-20T10:17:40.637Z,4.75
2019-03-20T10:20:15.900Z,5.03
2019-03-20T10:22:50.195Z,4.60
2019-03-20T10:25:23.218Z,4.95
2019-03-20T10:27:56.263Z,4.47
2019-03-20T10:30:29.607Z,5.67
2019-03-20T10:33:02.512Z,5.83
2019-03-20T10:35:35.429Z,4.83
2019-03-20T10:38:08.733Z,5.12
2019-03-20T10:40:41.893Z,4.40
2019-03-20T10:43:14.749Z,4.60
2019-03-20T10:45:47.934Z,5.55
2019-03-20T10:48:20.803Z,6.12
2019-03-20T10:50:53.735Z,6.15
2019-03-20T10:53:26.499Z,6.15
2019-03-20T10:55:59.321Z,6.03
2019-03-20T10:58:32.184Z,5.75
2019-03-20T11:01:05.024Z,6.25
2019-03-20T11:03:38.951Z,7.20
2019-03-20T11:06:11.899Z,7.12
2019-03-20T11:08:44.791Z,6.90
2019-03-20T11:11:26.486Z,7.55
2019-03-20T11:13:52.343Z,7.42
2019-03-20T11:16:25.269Z,7.08
2019-03-20T11:18:58.249Z,6.87
2019-03-20T11:21:31.550Z,6.95
2019-03-20T11:24:04.565Z,7.00
2019-03-20T11:26:37.449Z,7.70
2019-03-20T11:29:10.621Z,7.90
2019-03-20T11:31:43.491Z,7.20
2019-03-20T11:34:16.461Z,8.95
2019-03-20T11:36:49.226Z,8.50
2019-03-20T11:39:29.653Z,7.15
2019-03-20T11:41:57.190Z,7.83
2019-03-20T11:44:30.266Z,7.47
2019-03-20T11:47:03.022Z,7.22
2019-03-20T11:49:35.894Z,7.33
2019-03-20T11:52:08.901Z,7.65
2019-03-20T11:54:41.855Z,7.55
2019-03-20T11:57:15.218Z,7.00
2019-03-20T11:59:48.361Z,7.03
2019-03-20T12:02:28.015Z,7.42
2019-03-20T12:04:56.223Z,6.85
2019-03-20T12:07:29.252Z,7.60
2019-03-20T12:10:02.394Z,7.42
2019-03-20T12:12:35.359Z,11.20
2019-03-20T12:15:08.615Z,6.78
2019-03-20T12:17:41.727Z,6.55
2019-03-20T12:20:16.256Z,6.50
2019-03-20T12:22:49.595Z,6.40
2019-03-20T12:25:24.762Z,6.30
2019-03-20T12:27:57.941Z,7.10
2019-03-20T12:30:31.990Z,6.67
2019-03-20T12:33:05.372Z,6.90
2019-03-20T12:35:38.281Z,7.25
2019-03-20T12:38:14.972Z,6.40
2019-03-20T12:40:46.293Z,5.58
2019-03-20T12:43:19.301Z,5.40
2019-03-20T12:45:52.242Z,5.12
2019-03-20T12:48:25.022Z,5.25
2019-03-20T12:50:57.848Z,4.83
2019-03-20T12:53:31.638Z,4.72
2019-03-20T12:56:04.515Z,4.45
2019-03-20T12:58:37.601Z,5.03
2019-03-20T13:01:10.600Z,4.42
2019-03-20T13:03:43.432Z,3.83
2019-03-20T13:06:16.310Z,3.70
2019-03-20T13:08:49.183Z,5.35
2019-03-20T13:11:22.128Z,4.35
2019-03-20T13:13:54.902Z,4.90
2019-03-20T13:16:27.811Z,3.62
2019-03-20T13:19:00.811Z,3.72
2019-03-20T13:21:33.707Z,3.70
2019-03-20T13:24:06.613Z,4.12
2019-03-20T13:26:40.598Z,4.53
2019-03-20T13:29:13.613Z,5.60
2019-03-20T13:31:46.631Z,5.87
2019-03-20T13:34:19.597Z,4.45
2019-03-20T13:36:52.566Z,4.50
2019-03-20T13:39:25.282Z,4.45
2019-03-20T13:41:58.253Z,5.03
2019-03-20T13:44:31.187Z,5.42
2019-03-20T13:47:04.143Z,5.87
2019-03-20T13:49:37.008Z,5.03
2019-03-20T13:52:11.141Z,5.35
2019-03-20T13:54:43.936Z,5.45
2019-03-20T13:57:16.866Z,5.03
2019-03-20T13:59:49.916Z,5.75
2019-03-20T14:02:22.851Z,6.20
2019-03-20T14:04:55.931Z,6.12
2019-03-20T14:07:29.318Z,6.62
2019-03-20T14:10:03.042Z,6.47
2019-03-20T14:12:37.029Z,7.28
2019-03-20T14:15:10.721Z,6.20
2019-03-20T14:17:43.807Z,6.62
2019-03-20T14:20:18.866Z,7.83
2019-03-20T14:22:51.749Z,7.65
2019-03-20T14:25:24.624Z,9.90
2019-03-20T14:27:57.618Z,18.85
2019-03-20T14:30:30.606Z,21.75
2019-03-20T14:33:05.077Z,6.78
2019-03-20T14:35:37.923Z,6.78
2019-03-20T14:38:10.809Z,6.10
2019-03-20T14:40:43.562Z,6.58
2019-03-20T14:43:16.804Z,6.08
2019-03-20T14:45:49.970Z,6.15
2019-03-20T14:48:22.853Z,6.62
2019-03-20T14:50:55.654Z,6.08
2019-03-20T14:53:28.543Z,6.58
2019-03-20T14:56:01.633Z,6.08
2019-03-20T14:58:34.634Z,6.33
2019-03-20T15:01:07.647Z,6.00
2019-03-20T15:03:40.825Z,6.12
2019-03-20T15:06:14.152Z,6.00
2019-03-20T15:08:47.134Z,6.03
2019-03-20T15:11:20.242Z,5.92
2019-03-20T15:13:53.103Z,6.03
2019-03-20T15:16:26.112Z,6.15
2019-03-20T15:18:59.247Z,6.30
2019-03-20T15:21:32.260Z,6.28
2019-03-20T15:24:05.137Z,5.70
2019-03-20T15:26:39.254Z,5.58
2019-03-20T15:29:31.663Z,6.40
2019-03-20T15:32:05.043Z,6.45
2019-03-20T15:34:37.958Z,6.42
2019-03-20T15:37:10.823Z,5.42
2019-03-20T15:39:43.643Z,5.60
2019-03-20T15:42:16.425Z,4.95
2019-03-20T15:44:50.355Z,4.05
2019-03-20T15:47:23.203Z,4.17
2019-03-20T15:49:56.169Z,3.37
2019-03-20T15:52:29.240Z,3.67
2019-03-20T15:55:02.134Z,3.70
2019-03-20T15:57:35.013Z,3.62
2019-03-20T16:00:11.781Z,3.58
2019-03-20T16:02:45.098Z,2.60
2019-03-20T16:05:19.004Z,3.22
2019-03-20T16:07:52.055Z,2.65
2019-03-20T16:10:24.947Z,3.00
2019-03-20T16:12:57.977Z,2.77
2019-03-20T16:15:31.138Z,3.00
2019-03-20T16:18:04.176Z,2.98
2019-03-20T16:20:37.027Z,3.17
2019-03-20T16:23:09.981Z,2.87
2019-03-20T16:25:43.076Z,4.42
2019-03-20T16:28:16.274Z,3.02
2019-03-20T16:30:49.578Z,2.62
2019-03-20T16:33:22.670Z,3.20
2019-03-20T16:35:55.745Z,2.65
2019-03-20T16:38:28.810Z,3.10
2019-03-20T16:41:01.905Z,3.30
2019-03-20T16:43:35.078Z,2.90
2019-03-20T16:46:07.929Z,2.58
2019-03-20T16:48:40.916Z,3.22
2019-03-20T16:51:13.874Z,2.75
2019-03-20T16:53:46.979Z,3.80
2019-03-20T16:56:20.013Z,3.17
2019-03-20T16:58:53.313Z,3.10
2019-03-20T17:01:26.414Z,4.10
2019-03-20T17:03:59.486Z,3.72
2019-03-20T17:06:32.354Z,7.03
2019-03-20T17:09:06.273Z,2.65
2019-03-20T17:11:39.296Z,2.70
2019-03-20T17:14:12.588Z,2.70
2019-03-20T17:16:45.736Z,3.10
2019-03-20T17:19:18.924Z,3.55
2019-03-20T17:21:52.256Z,3.20
2019-03-20T17:24:25.148Z,3.15
2019-03-20T17:26:58.360Z,2.90
2019-03-20T17:29:31.349Z,2.83
2019-03-20T17:32:04.495Z,3.00
2019-03-20T17:34:37.728Z,3.15
2019-03-20T17:37:10.696Z,3.25
2019-03-20T17:39:43.714Z,3.12
2019-03-20T17:42:16.691Z,2.98
2019-03-20T17:44:49.737Z,3.40
2019-03-20T17:47:22.696Z,2.72
2019-03-20T17:49:55.505Z,3.67
2019-03-20T17:52:28.444Z,3.30
2019-03-20T17:55:01.673Z,3.90
2019-03-20T17:57:34.881Z,4.53
2019-03-20T18:00:11.086Z,4.80
2019-03-20T18:02:43.929Z,4.47
2019-03-20T18:05:17.010Z,5.78
2019-03-20T18:07:50.235Z,7.10
2019-03-20T18:10:23.139Z,6.35
2019-03-20T18:12:56.640Z,8.97
2019-03-20T18:15:29.660Z,11.93
2019-03-20T18:18:02.681Z,13.60
2019-03-20T18:20:36.394Z,10.95
2019-03-20T18:23:09.439Z,9.85
2019-03-20T18:25:42.546Z,8.70
2019-03-20T18:28:15.721Z,9.00
2019-03-20T18:30:49.262Z,9.03
2019-03-20T18:33:22.260Z,8.27
2019-03-20T18:35:55.307Z,7.83
2019-03-20T18:38:28.268Z,11.17
2019-03-20T18:41:01.182Z,10.23
2019-03-20T18:43:34.185Z,12.05
2019-03-20T18:46:07.266Z,14.97
2019-03-20T18:48:40.372Z,10.10
2019-03-20T18:51:13.280Z,8.70
2019-03-20T18:53:47.745Z,8.43
2019-03-20T18:56:20.777Z,8.10
2019-03-20T18:58:53.587Z,7.30
2019-03-20T19:01:26.733Z,6.63
2019-03-20T19:03:59.630Z,6.57
2019-03-20T19:06:32.644Z,7.03
2019-03-20T19:09:07.533Z,7.73
2019-03-20T19:11:41.180Z,10.17
2019-03-20T19:14:14.169Z,9.20
2019-03-20T19:16:47.173Z,7.93
2019-03-20T19:19:21.022Z,7.47
2019-03-20T19:21:54.135Z,6.50
2019-03-20T19:24:27.352Z,7.33
2019-03-20T19:27:00.374Z,6.90
2019-03-20T19:29:33.812Z,7.00
2019-03-20T19:32:06.950Z,8.40
2019-03-20T19:34:40.171Z,8.00
2019-03-20T19:37:13.426Z,7.40
2019-03-20T19:39:46.838Z,8.77
2019-03-20T19:42:20.329Z,10.93
2019-03-20T19:44:53.537Z,10.43
2019-03-20T19:47:26.607Z,11.30
2019-03-20T19:49:59.622Z,11.30
2019-03-20T19:52:32.592Z,11.60
2019-03-20T19:55:06.405Z,11.63
2019-03-20T19:57:40.537Z,10.90
2019-03-20T20:00:14.628Z,9.00
2019-03-20T20:02:47.638Z,8.37
2019-03-20T20:05:20.645Z,9.90
2019-03-20T20:07:54.024Z,10.17
2019-03-20T20:10:26.931Z,7.93
2019-03-20T20:13:00.197Z,10.30
2019-03-20T20:15:33.169Z,8.87
2019-03-20T20:18:06.041Z,9.03
2019-03-20T20:20:39.206Z,9.80
2019-03-20T20:23:12.232Z,11.23
2019-03-20T20:25:45.267Z,15.20
2019-03-20T20:28:18.198Z,15.03
2019-03-20T20:30:51.419Z,11.73
2019-03-20T20:33:24.358Z,10.17
2019-03-20T20:35:57.443Z,9.73
2019-03-20T20:38:30.737Z,9.77
2019-03-20T20:41:04.007Z,10.03
2019-03-20T20:43:36.785Z,9.17
2019-03-20T20:46:09.859Z,8.57
2019-03-20T20:48:43.152Z,8.20
2019-03-20T20:51:16.208Z,8.37
2019-03-20T20:53:49.263Z,8.03
2019-03-20T20:56:22.751Z,8.27
2019-03-20T20:58:55.688Z,8.07
2019-03-20T21:01:30.150Z,8.83
2019-03-20T21:04:05.462Z,9.87
2019-03-20T21:06:38.444Z,10.73
2019-03-20T21:09:11.298Z,11.77
2019-03-20T21:11:44.233Z,11.80
2019-03-20T21:14:17.357Z,11.00
2019-03-20T21:16:51.058Z,10.23
2019-03-20T21:19:35.868Z,9.87
2019-03-20T21:22:59.634Z,9.80
2019-03-20T21:25:33.297Z,10.63
2019-03-20T21:28:50.171Z,10.60
2019-03-20T21:31:55.067Z,10.03
2019-03-20T21:35:34.354Z,10.47
2019-03-20T21:38:07.584Z,10.73
2019-03-20T21:40:53.041Z,11.80
2019-03-20T21:44:06.972Z,11.63
2019-03-20T21:47:29.713Z,10.63
2019-03-20T21:50:29.299Z,10.33
2019-03-20T21:53:02.943Z,12.03
2019-03-20T21:56:12.605Z,11.40
2019-03-20T21:59:15.548Z,11.50
2019-03-20T22:02:03.198Z,12.33
2019-03-20T22:04:36.831Z,12.47
2019-03-20T22:07:10.738Z,13.33
2019-03-20T22:10:33.792Z,13.57
2019-03-20T22:13:23.581Z,12.80
2019-03-20T22:16:22.920Z,14.77
2019-03-20T22:19:28.252Z,13.57
2019-03-20T22:22:30.859Z,13.57
2019-03-20T22:25:50.697Z,14.33
2019-03-20T22:29:01.573Z,14.73
2019-03-20T22:31:36.882Z,12.23
2019-03-20T22:34:46.781Z,11.77
2019-03-20T22:37:39.339Z,10.60
2019-03-20T22:41:10.695Z,11.87
2019-03-20T22:43:57.146Z,10.13
2019-03-20T22:47:14.169Z,10.20
2019-03-20T22:50:21.506Z,9.70
2019-03-20T22:53:31.171Z,9.03
2019-03-20T22:56:30.579Z,10.30
2019-03-20T22:59:04.078Z,20.50
2019-03-20T23:01:41.935Z,15.80
2019-03-20T23:04:26.335Z,9.93
2019-03-20T23:06:59.925Z,8.00
2019-03-20T23:09:33.735Z,8.03
2019-03-20T23:12:12.064Z,9.07
2019-03-20T23:14:45.855Z,8.33
2019-03-20T23:17:19.299Z,8.70
2019-03-20T23:19:54.178Z,8.83
2019-03-20T23:22:28.087Z,9.10
2019-03-20T23:25:01.629Z,8.47
2019-03-20T23:27:35.564Z,9.00
2019-03-20T23:30:13.296Z,10.77
2019-03-20T23:32:46.811Z,11.27
2019-03-20T23:35:20.588Z,9.93
2019-03-20T23:37:54.254Z,10.47
2019-03-20T23:40:28.126Z,9.90
2019-03-20T23:43:03.170Z,10.27
2019-03-20T23:45:36.926Z,9.77
2019-03-20T23:48:29.917Z,10.57
2019-03-20T23:51:07.459Z,10.53
2019-03-20T23:53:45.789Z,9.83
2019-03-20T23:56:20.091Z,9.80
2019-03-20T23:58:53.676Z,23.20
